sensor_id;sensor_type;location;lat;lon;timestamp;temperature;humidity
32095;DHT22;18608;53.688;10.748;2023-03-08T00:00:15;-1.20;99.90
32095;DHT22;18608;53.688;10.748;2023-03-08T00:02:41;-1.20;99.90
32095;DHT22;18608;53.688;10.748;2023-03-08T00:05:07;-1.20;99.90
32095;DHT22;18608;53.688;10.748;2023-03-08T00:07:33;-1.20;99.90
32095;DHT22;18608;53.688;10.748;2023-03-08T00:09:59;-1.20;99.90
32095;DHT22;18608;53.688;10.748;2023-03-08T00:12:25;-1.20;99.90
32095;DHT22;18608;53.688;10.748;2023-03-08T00:14:51;-1.20;99.90
32095;DHT22;18608;53.688;10.748;2023-03-08T00:17:17;-1.20;99.90
32095;DHT22;18608;53.688;10.748;2023-03-08T00:19:43;-1.20;99.90
32095;DHT22;18608;53.688;10.748;2023-03-08T00:22:09;-1.20;99.90
32095;DHT22;18608;53.688;10.748;2023-03-08T00:24:35;-1.20;99.90
32095;DHT22;18608;53.688;10.748;2023-03-08T00:27:01;-1.20;99.90
32095;DHT22;18608;53.688;10.748;2023-03-08T00:29:27;-1.10;99.90
32095;DHT22;18608;53.688;10.748;2023-03-08T00:31:53;-1.10;99.90
32095;DHT22;18608;53.688;10.748;2023-03-08T00:34:18;-1.20;99.90
32095;DHT22;18608;53.688;10.748;2023-03-08T00:36:44;-1.20;99.90
32095;DHT22;18608;53.688;10.748;2023-03-08T00:39:10;-1.20;99.90
32095;DHT22;18608;53.688;10.748;2023-03-08T00:41:36;-1.20;99.90
32095;DHT22;18608;53.688;10.748;2023-03-08T00:44:02;-1.20;99.90
32095;DHT22;18608;53.688;10.748;2023-03-08T00:46:28;-1.20;99.90
32095;DHT22;18608;53.688;10.748;2023-03-08T00:48:54;-1.10;99.90
32095;DHT22;18608;53.688;10.748;2023-03-08T00:51:20;-1.10;99.90
32095;DHT22;18608;53.688;10.748;2023-03-08T00:53:46;-1.10;99.90
32095;DHT22;18608;53.688;10.748;2023-03-08T00:56:12;-1.10;99.90
32095;DHT22;18608;53.688;10.748;2023-03-08T00:58:39;-1.10;99.90
32095;DHT22;18608;53.688;10.748;2023-03-08T01:01:06;-1.10;99.90
32095;DHT22;18608;53.688;10.748;2023-03-08T01:03:32;-1.00;99.90
32095;DHT22;18608;53.688;10.748;2023-03-08T01:06:05;-0.90;99.90
32095;DHT22;18608;53.688;10.748;2023-03-08T01:08:31;-0.90;99.90
32095;DHT22;18608;53.688;10.748;2023-03-08T01:10:58;-0.90;99.90
32095;DHT22;18608;53.688;10.748;2023-03-08T01:13:26;-0.90;99.90
32095;DHT22;18608;53.688;10.748;2023-03-08T01:15:52;-0.80;99.90
32095;DHT22;18608;53.688;10.748;2023-03-08T01:18:17;-0.90;99.90
32095;DHT22;18608;53.688;10.748;2023-03-08T01:20:43;-0.90;99.90
32095;DHT22;18608;53.688;10.748;2023-03-08T01:23:09;-0.90;99.90
32095;DHT22;18608;53.688;10.748;2023-03-08T01:25:35;-0.90;99.90
32095;DHT22;18608;53.688;10.748;2023-03-08T01:28:01;-0.90;99.90
32095;DHT22;18608;53.688;10.748;2023-03-08T01:30:26;-0.90;99.90
32095;DHT22;18608;53.688;10.748;2023-03-08T01:32:52;-0.90;99.90
32095;DHT22;18608;53.688;10.748;2023-03-08T01:35:18;-0.90;99.90
32095;DHT22;18608;53.688;10.748;2023-03-08T01:37:44;-0.80;99.90
32095;DHT22;18608;53.688;10.748;2023-03-08T01:40:13;-0.80;99.90
32095;DHT22;18608;53.688;10.748;2023-03-08T01:42:40;-0.80;99.90
32095;DHT22;18608;53.688;10.748;2023-03-08T01:48:11;-0.80;99.90
32095;DHT22;18608;53.688;10.748;2023-03-08T01:50:39;-0.80;99.90
32095;DHT22;18608;53.688;10.748;2023-03-08T01:53:04;-0.80;99.90
32095;DHT22;18608;53.688;10.748;2023-03-08T01:55:30;-0.90;99.90
32095;DHT22;18608;53.688;10.748;2023-03-08T01:57:56;-1.00;99.90
32095;DHT22;18608;53.688;10.748;2023-03-08T02:00:24;-1.10;99.90
32095;DHT22;18608;53.688;10.748;2023-03-08T02:03:01;-1.10;99.90
32095;DHT22;18608;53.688;10.748;2023-03-08T02:05:29;-1.10;99.90
32095;DHT22;18608;53.688;10.748;2023-03-08T02:07:55;-1.20;99.90
32095;DHT22;18608;53.688;10.748;2023-03-08T02:10:21;-1.20;99.90
32095;DHT22;18608;53.688;10.748;2023-03-08T02:12:47;-1.30;99.90
32095;DHT22;18608;53.688;10.748;2023-03-08T02:15:14;-1.30;99.90
32095;DHT22;18608;53.688;10.748;2023-03-08T02:17:42;-1.40;99.90
32095;DHT22;18608;53.688;10.748;2023-03-08T02:20:34;-1.40;99.90
32095;DHT22;18608;53.688;10.748;2023-03-08T02:23:18;-1.30;99.90
32095;DHT22;18608;53.688;10.748;2023-03-08T02:25:57;-1.40;99.90
32095;DHT22;18608;53.688;10.748;2023-03-08T02:28:25;-1.50;99.90
32095;DHT22;18608;53.688;10.748;2023-03-08T02:30:51;-1.50;99.90
32095;DHT22;18608;53.688;10.748;2023-03-08T02:33:17;-1.60;99.90
32095;DHT22;18608;53.688;10.748;2023-03-08T02:35:43;-1.70;99.90
32095;DHT22;18608;53.688;10.748;2023-03-08T02:38:11;-1.70;99.90
32095;DHT22;18608;53.688;10.748;2023-03-08T02:40:38;-1.80;99.90
32095;DHT22;18608;53.688;10.748;2023-03-08T02:43:05;-1.80;99.90
32095;DHT22;18608;53.688;10.748;2023-03-08T02:45:32;-1.90;99.90
32095;DHT22;18608;53.688;10.748;2023-03-08T02:47:59;-1.90;99.90
32095;DHT22;18608;53.688;10.748;2023-03-08T02:50:25;-1.90;99.90
32095;DHT22;18608;53.688;10.748;2023-03-08T02:52:50;-2.00;99.90
32095;DHT22;18608;53.688;10.748;2023-03-08T02:55:16;-2.00;99.90
32095;DHT22;18608;53.688;10.748;2023-03-08T02:57:42;-2.10;99.90
32095;DHT22;18608;53.688;10.748;2023-03-08T03:00:08;-2.10;99.90
32095;DHT22;18608;53.688;10.748;2023-03-08T03:02:34;-2.20;99.90
32095;DHT22;18608;53.688;10.748;2023-03-08T03:05:05;-2.20;99.90
32095;DHT22;18608;53.688;10.748;2023-03-08T03:07:34;-2.20;99.90
32095;DHT22;18608;53.688;10.748;2023-03-08T03:10:00;-2.20;99.90
32095;DHT22;18608;53.688;10.748;2023-03-08T03:12:26;-2.20;99.90
32095;DHT22;18608;53.688;10.748;2023-03-08T03:14:52;-2.30;99.90
32095;DHT22;18608;53.688;10.748;2023-03-08T03:17:17;-2.30;99.90
32095;DHT22;18608;53.688;10.748;2023-03-08T03:19:43;-2.20;99.90
32095;DHT22;18608;53.688;10.748;2023-03-08T03:22:08;-2.30;99.90
32095;DHT22;18608;53.688;10.748;2023-03-08T03:24:34;-2.30;99.90
32095;DHT22;18608;53.688;10.748;2023-03-08T03:27:00;-2.40;99.90
32095;DHT22;18608;53.688;10.748;2023-03-08T03:29:25;-2.40;99.90
32095;DHT22;18608;53.688;10.748;2023-03-08T03:31:51;-2.40;99.90
32095;DHT22;18608;53.688;10.748;2023-03-08T03:34:17;-2.40;99.90
32095;DHT22;18608;53.688;10.748;2023-03-08T03:36:42;-2.30;99.90
32095;DHT22;18608;53.688;10.748;2023-03-08T03:39:08;-2.20;99.90
32095;DHT22;18608;53.688;10.748;2023-03-08T03:41:33;-2.20;99.90
32095;DHT22;18608;53.688;10.748;2023-03-08T03:43:59;-2.10;99.90
32095;DHT22;18608;53.688;10.748;2023-03-08T03:46:25;-2.00;99.90
32095;DHT22;18608;53.688;10.748;2023-03-08T03:48:50;-1.90;99.90
32095;DHT22;18608;53.688;10.748;2023-03-08T03:51:18;-1.90;99.90
32095;DHT22;18608;53.688;10.748;2023-03-08T03:53:45;-1.80;99.90
32095;DHT22;18608;53.688;10.748;2023-03-08T03:58:38;-1.70;99.90
32095;DHT22;18608;53.688;10.748;2023-03-08T04:01:17;-1.60;99.90
32095;DHT22;18608;53.688;10.748;2023-03-08T04:03:46;-1.60;99.90
32095;DHT22;18608;53.688;10.748;2023-03-08T04:06:14;-1.50;99.90
32095;DHT22;18608;53.688;10.748;2023-03-08T04:08:40;-1.40;99.90
32095;DHT22;18608;53.688;10.748;2023-03-08T04:11:10;-1.40;99.90
32095;DHT22;18608;53.688;10.748;2023-03-08T04:13:36;-1.30;99.90
32095;DHT22;18608;53.688;10.748;2023-03-08T04:16:12;-1.30;99.90
32095;DHT22;18608;53.688;10.748;2023-03-08T04:18:38;-1.20;99.90
32095;DHT22;18608;53.688;10.748;2023-03-08T04:21:04;-1.20;99.90
32095;DHT22;18608;53.688;10.748;2023-03-08T04:23:30;-1.10;99.90
32095;DHT22;18608;53.688;10.748;2023-03-08T04:25:56;-1.10;99.90
32095;DHT22;18608;53.688;10.748;2023-03-08T04:28:21;-1.10;99.90
32095;DHT22;18608;53.688;10.748;2023-03-08T04:30:47;-1.10;99.90
32095;DHT22;18608;53.688;10.748;2023-03-08T04:33:13;-1.10;99.90
32095;DHT22;18608;53.688;10.748;2023-03-08T04:35:38;-1.10;99.90
32095;DHT22;18608;53.688;10.748;2023-03-08T04:38:04;-1.10;99.90
32095;DHT22;18608;53.688;10.748;2023-03-08T04:40:30;-1.10;99.90
32095;DHT22;18608;53.688;10.748;2023-03-08T04:42:55;-1.00;99.90
32095;DHT22;18608;53.688;10.748;2023-03-08T04:45:21;-1.00;99.90
32095;DHT22;18608;53.688;10.748;2023-03-08T04:47:47;-1.00;99.90
32095;DHT22;18608;53.688;10.748;2023-03-08T04:50:13;-1.00;99.90
32095;DHT22;18608;53.688;10.748;2023-03-08T04:52:42;-1.00;99.90
32095;DHT22;18608;53.688;10.748;2023-03-08T04:55:07;-0.90;99.90
32095;DHT22;18608;53.688;10.748;2023-03-08T04:57:33;-0.90;99.90
32095;DHT22;18608;53.688;10.748;2023-03-08T04:59:59;-0.80;99.90
32095;DHT22;18608;53.688;10.748;2023-03-08T05:02:25;-0.80;99.90
32095;DHT22;18608;53.688;10.748;2023-03-08T05:04:50;-0.80;99.90
32095;DHT22;18608;53.688;10.748;2023-03-08T05:07:16;-0.70;99.90
32095;DHT22;18608;53.688;10.748;2023-03-08T05:09:42;-0.70;99.90
32095;DHT22;18608;53.688;10.748;2023-03-08T05:12:08;-0.70;99.90
32095;DHT22;18608;53.688;10.748;2023-03-08T05:14:33;-0.70;99.90
32095;DHT22;18608;53.688;10.748;2023-03-08T05:16:59;-0.70;99.90
32095;DHT22;18608;53.688;10.748;2023-03-08T05:19:24;-0.70;99.90
32095;DHT22;18608;53.688;10.748;2023-03-08T05:21:50;-0.60;99.90
32095;DHT22;18608;53.688;10.748;2023-03-08T05:24:16;-0.60;99.90
32095;DHT22;18608;53.688;10.748;2023-03-08T05:26:42;-0.40;99.90
32095;DHT22;18608;53.688;10.748;2023-03-08T05:29:08;-0.40;99.90
32095;DHT22;18608;53.688;10.748;2023-03-08T05:31:33;-0.40;99.90
32095;DHT22;18608;53.688;10.748;2023-03-08T05:34:01;-0.40;99.90
32095;DHT22;18608;53.688;10.748;2023-03-08T05:36:27;-0.50;99.90
32095;DHT22;18608;53.688;10.748;2023-03-08T05:38:53;-0.40;99.90
32095;DHT22;18608;53.688;10.748;2023-03-08T05:41:19;-0.40;99.90
32095;DHT22;18608;53.688;10.748;2023-03-08T05:43:46;-0.50;99.90
32095;DHT22;18608;53.688;10.748;2023-03-08T05:46:14;-0.50;99.90
32095;DHT22;18608;53.688;10.748;2023-03-08T05:48:41;-0.50;99.90
32095;DHT22;18608;53.688;10.748;2023-03-08T05:51:12;-0.50;99.90
32095;DHT22;18608;53.688;10.748;2023-03-08T05:53:38;-0.50;99.90
32095;DHT22;18608;53.688;10.748;2023-03-08T05:56:17;-0.50;99.90
32095;DHT22;18608;53.688;10.748;2023-03-08T05:58:44;-0.50;99.90
32095;DHT22;18608;53.688;10.748;2023-03-08T06:01:20;-0.50;99.90
32095;DHT22;18608;53.688;10.748;2023-03-08T06:03:48;-0.60;99.90
32095;DHT22;18608;53.688;10.748;2023-03-08T06:06:14;-0.60;99.90
32095;DHT22;18608;53.688;10.748;2023-03-08T06:08:41;-0.50;99.90
32095;DHT22;18608;53.688;10.748;2023-03-08T06:11:07;-0.40;99.90
32095;DHT22;18608;53.688;10.748;2023-03-08T06:13:33;-0.50;99.90
32095;DHT22;18608;53.688;10.748;2023-03-08T06:15:59;-0.40;99.90
32095;DHT22;18608;53.688;10.748;2023-03-08T06:18:26;-0.40;99.90
32095;DHT22;18608;53.688;10.748;2023-03-08T06:21:06;-0.30;99.90
32095;DHT22;18608;53.688;10.748;2023-03-08T06:23:33;-0.30;99.90
32095;DHT22;18608;53.688;10.748;2023-03-08T06:25:59;-0.30;99.90
32095;DHT22;18608;53.688;10.748;2023-03-08T06:28:26;-0.30;99.90
32095;DHT22;18608;53.688;10.748;2023-03-08T06:30:52;-0.30;99.90
32095;DHT22;18608;53.688;10.748;2023-03-08T06:33:24;-0.30;99.90
32095;DHT22;18608;53.688;10.748;2023-03-08T06:36:03;-0.20;99.90
32095;DHT22;18608;53.688;10.748;2023-03-08T06:38:30;-0.20;99.90
32095;DHT22;18608;53.688;10.748;2023-03-08T06:40:56;-0.30;99.90
32095;DHT22;18608;53.688;10.748;2023-03-08T06:43:22;-0.20;99.90
32095;DHT22;18608;53.688;10.748;2023-03-08T06:45:48;-0.10;99.90
32095;DHT22;18608;53.688;10.748;2023-03-08T06:48:14;0.30;99.90
32095;DHT22;18608;53.688;10.748;2023-03-08T06:50:40;-0.10;99.90
32095;DHT22;18608;53.688;10.748;2023-03-08T06:53:06;0.00;99.90
32095;DHT22;18608;53.688;10.748;2023-03-08T06:55:34;0.00;99.90
32095;DHT22;18608;53.688;10.748;2023-03-08T06:58:00;0.00;99.90
32095;DHT22;18608;53.688;10.748;2023-03-08T07:00:26;0.00;99.90
32095;DHT22;18608;53.688;10.748;2023-03-08T07:02:51;0.00;99.90
32095;DHT22;18608;53.688;10.748;2023-03-08T07:05:18;0.10;99.90
32095;DHT22;18608;53.688;10.748;2023-03-08T07:07:44;0.00;99.90
32095;DHT22;18608;53.688;10.748;2023-03-08T07:10:11;0.00;99.90
32095;DHT22;18608;53.688;10.748;2023-03-08T07:12:40;0.10;99.90
32095;DHT22;18608;53.688;10.748;2023-03-08T07:15:11;0.10;99.90
32095;DHT22;18608;53.688;10.748;2023-03-08T07:17:39;0.20;99.90
32095;DHT22;18608;53.688;10.748;2023-03-08T07:20:06;0.30;99.90
32095;DHT22;18608;53.688;10.748;2023-03-08T07:22:32;0.30;99.90
32095;DHT22;18608;53.688;10.748;2023-03-08T07:24:58;0.20;99.90
32095;DHT22;18608;53.688;10.748;2023-03-08T07:27:23;0.20;99.90
32095;DHT22;18608;53.688;10.748;2023-03-08T07:29:49;0.20;99.90
32095;DHT22;18608;53.688;10.748;2023-03-08T07:32:15;0.30;99.90
32095;DHT22;18608;53.688;10.748;2023-03-08T07:34:42;0.30;99.90
32095;DHT22;18608;53.688;10.748;2023-03-08T07:37:15;0.30;99.90
32095;DHT22;18608;53.688;10.748;2023-03-08T07:39:41;0.40;99.90
32095;DHT22;18608;53.688;10.748;2023-03-08T07:42:09;0.40;99.90
32095;DHT22;18608;53.688;10.748;2023-03-08T07:44:35;0.40;99.90
32095;DHT22;18608;53.688;10.748;2023-03-08T07:47:02;0.40;99.90
32095;DHT22;18608;53.688;10.748;2023-03-08T07:49:28;0.50;99.90
32095;DHT22;18608;53.688;10.748;2023-03-08T07:51:53;0.40;99.90
32095;DHT22;18608;53.688;10.748;2023-03-08T07:54:20;0.50;99.90
32095;DHT22;18608;53.688;10.748;2023-03-08T07:56:46;0.50;99.90
32095;DHT22;18608;53.688;10.748;2023-03-08T07:59:12;0.50;99.90
32095;DHT22;18608;53.688;10.748;2023-03-08T08:01:37;0.50;99.90
32095;DHT22;18608;53.688;10.748;2023-03-08T08:04:03;0.50;99.90
32095;DHT22;18608;53.688;10.748;2023-03-08T08:06:29;0.50;99.90
32095;DHT22;18608;53.688;10.748;2023-03-08T08:08:56;0.60;99.90
32095;DHT22;18608;53.688;10.748;2023-03-08T08:11:21;0.70;99.90
32095;DHT22;18608;53.688;10.748;2023-03-08T08:13:47;0.70;99.90
32095;DHT22;18608;53.688;10.748;2023-03-08T08:16:14;0.80;99.90
32095;DHT22;18608;53.688;10.748;2023-03-08T08:18:41;0.90;99.90
32095;DHT22;18608;53.688;10.748;2023-03-08T08:21:13;1.00;99.90
32095;DHT22;18608;53.688;10.748;2023-03-08T08:23:39;0.90;99.90
32095;DHT22;18608;53.688;10.748;2023-03-08T08:26:11;0.90;99.90
32095;DHT22;18608;53.688;10.748;2023-03-08T08:28:38;0.90;99.90
32095;DHT22;18608;53.688;10.748;2023-03-08T08:31:07;0.80;99.90
32095;DHT22;18608;53.688;10.748;2023-03-08T08:33:33;0.80;99.90
32095;DHT22;18608;53.688;10.748;2023-03-08T08:36:01;0.90;99.90
32095;DHT22;18608;53.688;10.748;2023-03-08T08:38:28;0.90;99.90
32095;DHT22;18608;53.688;10.748;2023-03-08T08:40:54;0.80;99.90
32095;DHT22;18608;53.688;10.748;2023-03-08T08:43:19;0.80;99.90
32095;DHT22;18608;53.688;10.748;2023-03-08T08:45:46;0.90;99.90
32095;DHT22;18608;53.688;10.748;2023-03-08T08:48:13;1.00;99.90
32095;DHT22;18608;53.688;10.748;2023-03-08T08:50:40;1.10;99.90
32095;DHT22;18608;53.688;10.748;2023-03-08T08:53:07;1.10;99.90
32095;DHT22;18608;53.688;10.748;2023-03-08T08:55:33;1.10;99.90
32095;DHT22;18608;53.688;10.748;2023-03-08T08:57:59;1.10;99.90
32095;DHT22;18608;53.688;10.748;2023-03-08T09:00:24;1.10;99.90
32095;DHT22;18608;53.688;10.748;2023-03-08T09:02:50;1.10;99.90
32095;DHT22;18608;53.688;10.748;2023-03-08T09:05:16;1.10;99.90
32095;DHT22;18608;53.688;10.748;2023-03-08T09:07:41;1.20;99.90
32095;DHT22;18608;53.688;10.748;2023-03-08T09:10:08;1.20;99.90
32095;DHT22;18608;53.688;10.748;2023-03-08T09:12:34;1.20;99.90
32095;DHT22;18608;53.688;10.748;2023-03-08T09:14:59;1.30;99.90
32095;DHT22;18608;53.688;10.748;2023-03-08T09:17:25;1.20;99.90
32095;DHT22;18608;53.688;10.748;2023-03-08T09:19:51;1.20;99.90
32095;DHT22;18608;53.688;10.748;2023-03-08T09:22:17;1.20;99.90
32095;DHT22;18608;53.688;10.748;2023-03-08T09:24:43;1.20;99.90
32095;DHT22;18608;53.688;10.748;2023-03-08T09:27:11;1.10;99.90
32095;DHT22;18608;53.688;10.748;2023-03-08T09:29:37;1.00;99.90
32095;DHT22;18608;53.688;10.748;2023-03-08T09:32:04;0.90;99.90
32095;DHT22;18608;53.688;10.748;2023-03-08T09:34:29;1.10;99.90
32095;DHT22;18608;53.688;10.748;2023-03-08T09:36:55;1.20;99.90
32095;DHT22;18608;53.688;10.748;2023-03-08T09:39:21;1.30;99.90
32095;DHT22;18608;53.688;10.748;2023-03-08T09:41:51;1.30;99.90
32095;DHT22;18608;53.688;10.748;2023-03-08T09:47:28;1.30;99.90
32095;DHT22;18608;53.688;10.748;2023-03-08T09:51:00;1.30;99.90
32095;DHT22;18608;53.688;10.748;2023-03-08T09:53:04;1.30;99.90
32095;DHT22;18608;53.688;10.748;2023-03-08T09:55:33;1.20;99.90
32095;DHT22;18608;53.688;10.748;2023-03-08T10:01:11;1.40;99.90
32095;DHT22;18608;53.688;10.748;2023-03-08T10:09:06;1.50;99.90
32095;DHT22;18608;53.688;10.748;2023-03-08T10:14:31;1.50;99.90
32095;DHT22;18608;53.688;10.748;2023-03-08T10:17:02;1.60;99.90
32095;DHT22;18608;53.688;10.748;2023-03-08T10:19:31;1.60;99.90
32095;DHT22;18608;53.688;10.748;2023-03-08T10:22:06;1.80;99.90
32095;DHT22;18608;53.688;10.748;2023-03-08T10:24:52;1.80;99.90
32095;DHT22;18608;53.688;10.748;2023-03-08T10:27:26;1.90;99.90
32095;DHT22;18608;53.688;10.748;2023-03-08T10:29:55;1.90;99.90
32095;DHT22;18608;53.688;10.748;2023-03-08T10:32:22;2.00;99.90
32095;DHT22;18608;53.688;10.748;2023-03-08T10:34:48;2.10;99.90
32095;DHT22;18608;53.688;10.748;2023-03-08T10:37:14;2.20;99.90
32095;DHT22;18608;53.688;10.748;2023-03-08T10:39:51;2.50;99.90
32095;DHT22;18608;53.688;10.748;2023-03-08T10:42:21;2.70;99.90
32095;DHT22;18608;53.688;10.748;2023-03-08T10:44:54;2.60;99.90
32095;DHT22;18608;53.688;10.748;2023-03-08T10:47:22;2.40;99.90
32095;DHT22;18608;53.688;10.748;2023-03-08T10:50:01;2.30;99.90
32095;DHT22;18608;53.688;10.748;2023-03-08T10:52:27;2.20;99.90
32095;DHT22;18608;53.688;10.748;2023-03-08T10:55:26;2.00;99.90
32095;DHT22;18608;53.688;10.748;2023-03-08T10:57:58;1.90;99.90
32095;DHT22;18608;53.688;10.748;2023-03-08T11:00:37;2.00;99.90
32095;DHT22;18608;53.688;10.748;2023-03-08T11:03:16;2.10;99.90
32095;DHT22;18608;53.688;10.748;2023-03-08T11:05:59;2.20;99.90
32095;DHT22;18608;53.688;10.748;2023-03-08T11:08:31;2.20;99.90
32095;DHT22;18608;53.688;10.748;2023-03-08T11:13:45;2.50;99.90
32095;DHT22;18608;53.688;10.748;2023-03-08T11:17:33;2.50;99.90
32095;DHT22;18608;53.688;10.748;2023-03-08T11:25:13;2.70;99.90
32095;DHT22;18608;53.688;10.748;2023-03-08T11:27:57;2.70;99.90
32095;DHT22;18608;53.688;10.748;2023-03-08T11:30:49;2.60;99.90
32095;DHT22;18608;53.688;10.748;2023-03-08T11:38:50;2.40;99.90
32095;DHT22;18608;53.688;10.748;2023-03-08T11:58:06;2.60;99.90
32095;DHT22;18608;53.688;10.748;2023-03-08T12:00:40;2.50;99.90
32095;DHT22;18608;53.688;10.748;2023-03-08T12:05:39;2.70;99.90
32095;DHT22;18608;53.688;10.748;2023-03-08T12:11:58;2.80;99.90
32095;DHT22;18608;53.688;10.748;2023-03-08T12:14:10;3.20;99.90
32095;DHT22;18608;53.688;10.748;2023-03-08T12:19:40;3.30;99.90
32095;DHT22;18608;53.688;10.748;2023-03-08T12:28:00;3.30;99.90
32095;DHT22;18608;53.688;10.748;2023-03-08T12:31:21;3.30;99.90
32095;DHT22;18608;53.688;10.748;2023-03-08T12:33:21;3.30;99.90
32095;DHT22;18608;53.688;10.748;2023-03-08T12:36:05;3.40;99.90
32095;DHT22;18608;53.688;10.748;2023-03-08T12:38:33;3.60;99.90
32095;DHT22;18608;53.688;10.748;2023-03-08T12:41:00;3.50;99.90
32095;DHT22;18608;53.688;10.748;2023-03-08T12:43:27;3.40;99.90
32095;DHT22;18608;53.688;10.748;2023-03-08T12:48:35;3.70;99.90
32095;DHT22;18608;53.688;10.748;2023-03-08T12:56:20;4.30;99.90
32095;DHT22;18608;53.688;10.748;2023-03-08T12:58:53;4.40;99.90
32095;DHT22;18608;53.688;10.748;2023-03-08T13:03:58;4.10;99.90
32095;DHT22;18608;53.688;10.748;2023-03-08T13:11:43;4.80;99.90
32095;DHT22;18608;53.688;10.748;2023-03-08T13:14:38;4.90;99.90
32095;DHT22;18608;53.688;10.748;2023-03-08T13:17:33;4.80;99.90
32095;DHT22;18608;53.688;10.748;2023-03-08T13:28:13;4.40;99.90
32095;DHT22;18608;53.688;10.748;2023-03-08T13:30:57;4.30;99.90
32095;DHT22;18608;53.688;10.748;2023-03-08T13:33:36;4.70;99.90
32095;DHT22;18608;53.688;10.748;2023-03-08T13:36:05;5.00;99.90
32095;DHT22;18608;53.688;10.748;2023-03-08T13:38:34;5.20;99.90
32095;DHT22;18608;53.688;10.748;2023-03-08T13:41:00;5.10;99.90
32095;DHT22;18608;53.688;10.748;2023-03-08T13:43:29;5.00;99.90
32095;DHT22;18608;53.688;10.748;2023-03-08T13:45:57;4.70;99.90
32095;DHT22;18608;53.688;10.748;2023-03-08T13:48:26;4.40;99.90
32095;DHT22;18608;53.688;10.748;2023-03-08T13:50:53;4.40;99.90
32095;DHT22;18608;53.688;10.748;2023-03-08T13:53:26;4.50;99.90
32095;DHT22;18608;53.688;10.748;2023-03-08T13:55:55;4.70;99.90
32095;DHT22;18608;53.688;10.748;2023-03-08T13:58:34;4.80;99.90
32095;DHT22;18608;53.688;10.748;2023-03-08T14:03:39;4.80;99.90
32095;DHT22;18608;53.688;10.748;2023-03-08T14:06:20;4.80;99.90
32095;DHT22;18608;53.688;10.748;2023-03-08T14:08:46;4.70;99.90
32095;DHT22;18608;53.688;10.748;2023-03-08T14:11:18;4.80;99.90
32095;DHT22;18608;53.688;10.748;2023-03-08T14:13:47;4.90;99.90
32095;DHT22;18608;53.688;10.748;2023-03-08T14:16:33;4.70;99.90
32095;DHT22;18608;53.688;10.748;2023-03-08T14:24:32;4.60;99.90
32095;DHT22;18608;53.688;10.748;2023-03-08T14:29:40;4.10;99.90
32095;DHT22;18608;53.688;10.748;2023-03-08T14:34:43;4.20;99.90
32095;DHT22;18608;53.688;10.748;2023-03-08T14:37:29;4.10;99.90
32095;DHT22;18608;53.688;10.748;2023-03-08T14:42:47;4.30;99.90
32095;DHT22;18608;53.688;10.748;2023-03-08T14:45:34;4.30;99.90
32095;DHT22;18608;53.688;10.748;2023-03-08T14:51:04;4.30;99.90
32095;DHT22;18608;53.688;10.748;2023-03-08T14:53:34;4.50;99.90
32095;DHT22;18608;53.688;10.748;2023-03-08T14:56:21;4.40;99.90
32095;DHT22;18608;53.688;10.748;2023-03-08T14:58:48;4.40;99.90
32095;DHT22;18608;53.688;10.748;2023-03-08T15:01:31;4.40;99.90
32095;DHT22;18608;53.688;10.748;2023-03-08T15:03:58;4.40;99.90
32095;DHT22;18608;53.688;10.748;2023-03-08T15:06:34;4.30;99.90
32095;DHT22;18608;53.688;10.748;2023-03-08T15:09:02;4.40;99.90
32095;DHT22;18608;53.688;10.748;2023-03-08T15:11:28;4.40;99.90
32095;DHT22;18608;53.688;10.748;2023-03-08T15:13:57;3.90;99.90
32095;DHT22;18608;53.688;10.748;2023-03-08T15:16:22;3.60;99.90
32095;DHT22;18608;53.688;10.748;2023-03-08T15:18:48;3.60;99.90
32095;DHT22;18608;53.688;10.748;2023-03-08T15:21:19;3.80;99.90
32095;DHT22;18608;53.688;10.748;2023-03-08T15:23:46;3.80;99.90
32095;DHT22;18608;53.688;10.748;2023-03-08T15:26:17;3.60;99.90
32095;DHT22;18608;53.688;10.748;2023-03-08T15:28:46;3.30;99.90
32095;DHT22;18608;53.688;10.748;2023-03-08T15:31:12;3.30;99.90
32095;DHT22;18608;53.688;10.748;2023-03-08T15:33:37;3.20;99.90
32095;DHT22;18608;53.688;10.748;2023-03-08T15:36:03;3.20;99.90
32095;DHT22;18608;53.688;10.748;2023-03-08T15:38:29;3.20;99.90
32095;DHT22;18608;53.688;10.748;2023-03-08T15:40:55;3.10;99.90
32095;DHT22;18608;53.688;10.748;2023-03-08T15:43:20;3.10;99.90
32095;DHT22;18608;53.688;10.748;2023-03-08T15:45:46;3.10;99.90
32095;DHT22;18608;53.688;10.748;2023-03-08T15:48:14;3.00;99.90
32095;DHT22;18608;53.688;10.748;2023-03-08T15:50:41;2.90;99.90
32095;DHT22;18608;53.688;10.748;2023-03-08T15:53:07;2.90;99.90
32095;DHT22;18608;53.688;10.748;2023-03-08T15:55:35;4.80;99.90
32095;DHT22;18608;53.688;10.748;2023-03-08T15:58:01;2.90;99.90
32095;DHT22;18608;53.688;10.748;2023-03-08T16:00:27;2.70;99.90
32095;DHT22;18608;53.688;10.748;2023-03-08T16:02:53;2.80;99.90
32095;DHT22;18608;53.688;10.748;2023-03-08T16:05:20;2.70;99.90
32095;DHT22;18608;53.688;10.748;2023-03-08T16:07:55;2.70;99.90
32095;DHT22;18608;53.688;10.748;2023-03-08T16:10:21;2.50;99.90
32095;DHT22;18608;53.688;10.748;2023-03-08T16:12:47;2.50;99.90
32095;DHT22;18608;53.688;10.748;2023-03-08T16:15:12;2.40;99.90
32095;DHT22;18608;53.688;10.748;2023-03-08T16:17:38;2.40;99.90
32095;DHT22;18608;53.688;10.748;2023-03-08T16:20:04;2.40;99.90
32095;DHT22;18608;53.688;10.748;2023-03-08T16:22:33;2.40;99.90
32095;DHT22;18608;53.688;10.748;2023-03-08T16:24:59;2.30;99.90
32095;DHT22;18608;53.688;10.748;2023-03-08T16:27:25;2.30;99.90
32095;DHT22;18608;53.688;10.748;2023-03-08T16:29:51;2.30;99.90
32095;DHT22;18608;53.688;10.748;2023-03-08T16:32:18;2.40;99.90
32095;DHT22;18608;53.688;10.748;2023-03-08T16:34:44;2.50;99.90
32095;DHT22;18608;53.688;10.748;2023-03-08T16:37:19;2.50;99.90
32095;DHT22;18608;53.688;10.748;2023-03-08T16:39:47;2.40;99.90
32095;DHT22;18608;53.688;10.748;2023-03-08T16:42:13;2.30;99.90
32095;DHT22;18608;53.688;10.748;2023-03-08T16:44:38;2.30;99.90
32095;DHT22;18608;53.688;10.748;2023-03-08T16:47:05;2.30;99.90
32095;DHT22;18608;53.688;10.748;2023-03-08T16:49:31;2.30;99.90
32095;DHT22;18608;53.688;10.748;2023-03-08T16:51:57;2.20;99.90
32095;DHT22;18608;53.688;10.748;2023-03-08T16:54:22;2.10;99.90
32095;DHT22;18608;53.688;10.748;2023-03-08T16:56:49;2.10;99.90
32095;DHT22;18608;53.688;10.748;2023-03-08T16:59:15;2.10;99.90
32095;DHT22;18608;53.688;10.748;2023-03-08T17:01:41;2.20;99.90
32095;DHT22;18608;53.688;10.748;2023-03-08T17:04:08;2.20;99.90
32095;DHT22;18608;53.688;10.748;2023-03-08T17:06:34;2.10;99.90
32095;DHT22;18608;53.688;10.748;2023-03-08T17:09:00;2.00;99.90
32095;DHT22;18608;53.688;10.748;2023-03-08T17:11:28;2.00;99.90
32095;DHT22;18608;53.688;10.748;2023-03-08T17:13:57;2.00;99.90
32095;DHT22;18608;53.688;10.748;2023-03-08T17:16:26;2.00;99.90
32095;DHT22;18608;53.688;10.748;2023-03-08T17:18:52;1.90;99.90
32095;DHT22;18608;53.688;10.748;2023-03-08T17:21:19;1.90;99.90